Time,TemperatureF,DewpointF,PressureIn,WindDirection,WindDirectionDegrees,WindSpeedMPH,WindSpeedGustMPH,Humidity,HourlyPrecipIn,Conditions,Clouds,dailyrainin,SolarRadiationWatts/m^2,SoftwareType,DateUTC
2013-05-25 00:02:00,74.0,58.0,-100.00,North,350,21.0,32.0,58,0.00,,,0.03,0.000000,,2013-05-25 10:02:00,
2013-05-25 00:12:00,74.0,58.0,-100.00,North,350,21.0,32.0,58,0.00,,,0.03,0.000000,,2013-05-25 10:12:00,
2013-05-25 00:22:00,74.0,58.0,-100.00,North,350,21.0,32.0,58,0.00,,,0.03,0.000000,,2013-05-25 10:22:00,
2013-05-25 00:32:00,74.0,58.0,-100.00,North,350,21.0,32.0,58,0.00,,,0.03,0.000000,,2013-05-25 10:32:00,
2013-05-25 00:42:00,74.0,58.0,-100.00,North,350,21.0,32.0,58,0.00,,,0.03,0.000000,,2013-05-25 10:42:00,
2013-05-25 01:02:00,75.0,60.0,-100.00,North,351,23.0,31.0,59,0.00,,,0.03,0.000000,,2013-05-25 11:02:00,
2013-05-25 01:12:00,75.0,60.0,-100.00,North,351,23.0,31.0,59,0.00,,,0.03,0.000000,,2013-05-25 11:12:00,
2013-05-25 01:21:00,75.0,60.0,-100.00,North,351,23.0,31.0,59,0.00,,,0.03,0.000000,,2013-05-25 11:21:00,
2013-05-25 01:32:00,75.0,60.0,-100.00,North,351,23.0,31.0,59,0.00,,,0.03,0.000000,,2013-05-25 11:32:00,
2013-05-25 01:41:00,75.0,60.0,-100.00,North,351,23.0,31.0,59,0.00,,,0.03,0.000000,,2013-05-25 11:41:00,
2013-05-25 02:12:00,76.0,61.0,-100.00,NNE,17,14.0,33.0,59,0.00,,,0.03,0.000000,,2013-05-25 12:12:00,
2013-05-25 02:22:00,76.0,61.0,-100.00,NNE,17,14.0,33.0,59,0.00,,,0.03,0.000000,,2013-05-25 12:22:00,
2013-05-25 02:32:00,76.0,61.0,-100.00,NNE,17,14.0,33.0,59,0.00,,,0.03,0.000000,,2013-05-25 12:32:00,
2013-05-25 02:42:00,76.0,61.0,-100.00,NNE,17,14.0,33.0,59,0.00,,,0.03,0.000000,,2013-05-25 12:42:00,
2013-05-25 03:02:00,75.0,61.0,-100.00,North,3,16.0,25.0,61,0.00,,,0.03,0.000000,,2013-05-25 13:02:00,
2013-05-25 03:11:00,75.0,61.0,-100.00,North,3,16.0,25.0,61,0.00,,,0.03,0.000000,,2013-05-25 13:11:00,
2013-05-25 03:21:00,75.0,61.0,-100.00,North,3,16.0,25.0,61,0.00,,,0.03,0.000000,,2013-05-25 13:21:00,
2013-05-25 03:32:00,75.0,61.0,-100.00,North,3,16.0,25.0,61,0.00,,,0.03,0.000000,,2013-05-25 13:32:00,
2013-05-25 03:42:00,75.0,61.0,-100.00,North,3,16.0,25.0,61,0.00,,,0.03,0.000000,,2013-05-25 13:42:00,
2013-05-25 04:02:00,76.0,61.0,-100.00,North,359,18.0,26.0,60,0.00,,,0.03,0.000000,,2013-05-25 14:02:00,
2013-05-25 04:11:00,76.0,61.0,-100.00,North,359,18.0,26.0,60,0.00,,,0.03,0.000000,,2013-05-25 14:11:00,
2013-05-25 04:22:00,76.0,61.0,-100.00,North,359,18.0,26.0,60,0.00,,,0.03,0.000000,,2013-05-25 14:22:00,
2013-05-25 04:32:00,76.0,61.0,-100.00,North,359,18.0,26.0,60,0.00,,,0.03,0.000000,,2013-05-25 14:32:00,
2013-05-25 04:41:00,76.0,61.0,-100.00,North,359,18.0,26.0,60,0.00,,,0.03,0.000000,,2013-05-25 14:41:00,
2013-05-25 05:01:00,76.0,60.0,-100.00,North,2,16.0,29.0,58,0.00,,,0.01,0.000000,,2013-05-25 15:01:00,
2013-05-25 05:11:00,76.0,60.0,-100.00,North,2,16.0,29.0,58,0.00,,,0.01,0.000000,,2013-05-25 15:11:00,
2013-05-25 05:22:00,76.0,60.0,-100.00,North,2,16.0,29.0,58,0.00,,,0.01,0.000000,,2013-05-25 15:22:00,
2013-05-25 05:33:00,76.0,60.0,-100.00,North,2,16.0,29.0,58,0.00,,,0.01,0.000000,,2013-05-25 15:33:00,
2013-05-25 05:43:00,76.0,60.0,-100.00,North,2,16.0,29.0,58,0.00,,,0.01,0.000000,,2013-05-25 15:43:00,
2013-05-25 06:03:00,76.0,61.0,-100.00,NNE,15,14.0,28.0,60,0.00,,,0.00,1.000000,,2013-05-25 16:03:00,
2013-05-25 06:12:00,76.0,61.0,-100.00,NNE,15,14.0,28.0,60,0.00,,,0.00,1.000000,,2013-05-25 16:12:00,
2013-05-25 06:23:00,76.0,61.0,-100.00,NNE,15,14.0,28.0,60,0.00,,,0.00,1.000000,,2013-05-25 16:23:00,
2013-05-25 06:32:00,76.0,61.0,-100.00,NNE,15,14.0,28.0,60,0.00,,,0.00,1.000000,,2013-05-25 16:32:00,
2013-05-25 06:42:00,76.0,61.0,-100.00,NNE,15,14.0,28.0,60,0.00,,,0.00,1.000000,,2013-05-25 16:42:00,
2013-05-25 07:02:00,75.0,60.0,-100.00,North,5,17.0,26.0,59,0.00,,,0.00,51.000000,,2013-05-25 17:02:00,
2013-05-25 07:11:00,75.0,60.0,-100.00,North,5,17.0,26.0,59,0.00,,,0.00,51.000000,,2013-05-25 17:11:00,
2013-05-25 07:22:00,75.0,60.0,-100.00,North,5,17.0,26.0,59,0.00,,,0.00,51.000000,,2013-05-25 17:22:00,
2013-05-25 07:32:00,75.0,60.0,-100.00,North,5,17.0,26.0,59,0.00,,,0.00,51.000000,,2013-05-25 17:32:00,
2013-05-25 07:41:00,75.0,60.0,-100.00,North,5,17.0,26.0,59,0.00,,,0.00,51.000000,,2013-05-25 17:41:00,
2013-05-25 08:01:00,78.0,62.0,-100.00,NNE,29,17.0,27.0,58,0.00,,,-99.99,313.000000,,2013-05-25 18:01:00,
2013-05-25 08:11:00,78.0,62.0,-100.00,NNE,29,17.0,27.0,58,0.00,,,-99.99,313.000000,,2013-05-25 18:11:00,
2013-05-25 08:21:00,78.0,62.0,-100.00,NNE,29,17.0,27.0,58,0.00,,,-99.99,313.000000,,2013-05-25 18:21:00,
2013-05-25 08:32:00,78.0,62.0,-100.00,NNE,29,17.0,27.0,58,0.00,,,-99.99,313.000000,,2013-05-25 18:32:00,
2013-05-25 08:42:00,78.0,62.0,-100.00,NNE,29,17.0,27.0,58,0.00,,,-99.99,313.000000,,2013-05-25 18:42:00,
2013-05-25 09:01:00,83.0,62.0,-100.00,NE,43,16.0,26.0,50,0.00,,,0.00,538.000000,,2013-05-25 19:01:00,
2013-05-25 09:11:00,83.0,62.0,-100.00,NE,43,16.0,26.0,50,0.00,,,0.00,538.000000,,2013-05-25 19:11:00,
2013-05-25 09:21:00,83.0,62.0,-100.00,NE,43,16.0,26.0,50,0.00,,,0.00,538.000000,,2013-05-25 19:21:00,
2013-05-25 09:31:00,83.0,62.0,-100.00,NE,43,16.0,26.0,50,0.00,,,0.00,538.000000,,2013-05-25 19:31:00,
2013-05-25 09:41:00,83.0,62.0,-100.00,NE,43,16.0,26.0,50,0.00,,,0.00,538.000000,,2013-05-25 19:41:00,
2013-05-25 10:02:00,83.0,62.0,-100.00,NNE,29,19.0,26.0,49,0.00,,,0.00,597.000000,,2013-05-25 20:02:00,
2013-05-25 10:11:00,83.0,62.0,-100.00,NNE,29,19.0,26.0,49,0.00,,,0.00,597.000000,,2013-05-25 20:11:00,
2013-05-25 10:21:00,83.0,62.0,-100.00,NNE,29,19.0,26.0,49,0.00,,,0.00,597.000000,,2013-05-25 20:21:00,
2013-05-25 10:32:00,83.0,62.0,-100.00,NNE,29,19.0,26.0,49,0.00,,,0.00,597.000000,,2013-05-25 20:32:00,
2013-05-25 10:41:00,83.0,62.0,-100.00,NNE,29,19.0,26.0,49,0.00,,,0.00,597.000000,,2013-05-25 20:41:00,
2013-05-25 11:11:00,85.0,62.0,-100.00,NNE,33,16.0,29.0,46,0.00,,,0.00,693.000000,,2013-05-25 21:11:00,
2013-05-25 11:21:00,85.0,62.0,-100.00,NNE,33,16.0,29.0,46,0.00,,,0.00,693.000000,,2013-05-25 21:21:00,
2013-05-25 11:33:00,85.0,62.0,-100.00,NNE,33,16.0,29.0,46,0.00,,,0.00,693.000000,,2013-05-25 21:33:00,
2013-05-25 11:43:00,85.0,62.0,-100.00,NNE,33,16.0,29.0,46,0.00,,,0.00,693.000000,,2013-05-25 21:43:00,
2013-05-25 12:12:00,84.0,63.0,-100.00,NNE,28,17.0,30.0,50,0.00,,,0.00,764.000000,,2013-05-25 22:12:00,
2013-05-25 12:22:00,84.0,63.0,-100.00,NNE,28,17.0,30.0,50,0.00,,,0.00,764.000000,,2013-05-25 22:22:00,
2013-05-25 12:32:00,84.0,63.0,-100.00,NNE,28,17.0,30.0,50,0.00,,,0.00,764.000000,,2013-05-25 22:32:00,
2013-05-25 12:42:00,84.0,63.0,-100.00,NNE,28,17.0,30.0,50,0.00,,,0.00,764.000000,,2013-05-25 22:42:00,
2013-05-25 13:12:00,77.0,63.0,-100.00,ENE,74,20.0,28.0,61,0.00,,,0.00,831.000000,,2013-05-25 23:12:00,
2013-05-25 13:21:00,77.0,63.0,-100.00,ENE,74,20.0,28.0,61,0.00,,,0.00,831.000000,,2013-05-25 23:21:00,
2013-05-25 13:32:00,77.0,63.0,-100.00,ENE,74,20.0,28.0,61,0.00,,,0.00,831.000000,,2013-05-25 23:32:00,
2013-05-25 13:42:00,77.0,63.0,-100.00,ENE,74,20.0,28.0,61,0.00,,,0.00,831.000000,,2013-05-25 23:42:00,
2013-05-25 14:01:00,77.0,63.0,-100.00,ENE,65,17.0,28.0,62,0.00,,,0.00,623.000000,,2013-05-26 00:01:00,
2013-05-25 14:11:00,77.0,63.0,-100.00,ENE,65,17.0,28.0,62,0.00,,,0.00,623.000000,,2013-05-26 00:11:00,
2013-05-25 14:21:00,77.0,63.0,-100.00,ENE,65,17.0,28.0,62,0.00,,,0.00,623.000000,,2013-05-26 00:21:00,
2013-05-25 14:31:00,77.0,63.0,-100.00,ENE,65,17.0,28.0,62,0.00,,,0.00,623.000000,,2013-05-26 00:31:00,
2013-05-25 14:42:00,77.0,63.0,-100.00,ENE,65,17.0,28.0,62,0.00,,,0.00,623.000000,,2013-05-26 00:42:00,
2013-05-25 15:01:00,77.0,68.0,-100.00,ENE,60,16.0,29.0,74,0.00,,,0.00,550.000000,,2013-05-26 01:01:00,
2013-05-25 15:11:00,77.0,68.0,-100.00,ENE,60,16.0,29.0,74,0.00,,,0.00,550.000000,,2013-05-26 01:11:00,
2013-05-25 15:21:00,77.0,68.0,-100.00,ENE,60,16.0,29.0,74,0.00,,,0.00,550.000000,,2013-05-26 01:21:00,
2013-05-25 15:32:00,77.0,68.0,-100.00,ENE,60,16.0,29.0,74,0.00,,,0.00,550.000000,,2013-05-26 01:32:00,
2013-05-25 15:41:00,77.0,68.0,-100.00,ENE,60,16.0,29.0,74,0.00,,,0.00,550.000000,,2013-05-26 01:41:00,
2013-05-25 16:02:00,78.0,67.0,-100.00,NE,50,15.0,25.0,69,0.01,,,0.01,436.000000,,2013-05-26 02:02:00,
2013-05-25 16:11:00,78.0,67.0,-100.00,NE,50,15.0,25.0,69,0.01,,,0.01,436.000000,,2013-05-26 02:11:00,
2013-05-25 16:21:00,78.0,67.0,-100.00,NE,50,15.0,25.0,69,0.01,,,0.01,436.000000,,2013-05-26 02:21:00,
2013-05-25 16:32:00,78.0,67.0,-100.00,NE,50,15.0,25.0,69,0.01,,,0.01,436.000000,,2013-05-26 02:32:00,
2013-05-25 16:41:00,78.0,67.0,-100.00,NE,50,15.0,25.0,69,0.01,,,0.01,436.000000,,2013-05-26 02:41:00,
2013-05-25 17:01:00,74.0,67.0,-100.00,NE,48,13.0,28.0,78,0.01,,,0.02,212.000000,,2013-05-26 03:01:00,
2013-05-25 17:11:00,74.0,67.0,-100.00,NE,48,13.0,28.0,78,0.01,,,0.02,212.000000,,2013-05-26 03:11:00,
2013-05-25 17:21:00,74.0,67.0,-100.00,NE,48,13.0,28.0,78,0.01,,,0.02,212.000000,,2013-05-26 03:21:00,
2013-05-25 17:33:00,74.0,67.0,-100.00,NE,48,13.0,28.0,78,0.01,,,0.02,212.000000,,2013-05-26 03:33:00,
2013-05-25 17:42:00,74.0,67.0,-100.00,NE,48,13.0,28.0,78,0.01,,,0.02,212.000000,,2013-05-26 03:42:00,
2013-05-25 18:02:00,75.0,68.0,-100.00,NE,55,12.0,29.0,79,0.05,,,0.07,116.000000,,2013-05-26 04:02:00,
2013-05-25 18:12:00,75.0,68.0,-100.00,NE,55,12.0,29.0,79,0.05,,,0.07,116.000000,,2013-05-26 04:12:00,
2013-05-25 18:23:00,75.0,68.0,-100.00,NE,55,12.0,29.0,79,0.05,,,0.07,116.000000,,2013-05-26 04:23:00,
2013-05-25 18:33:00,75.0,68.0,-100.00,NE,55,12.0,29.0,79,0.05,,,0.07,116.000000,,2013-05-26 04:33:00,
2013-05-25 18:42:00,75.0,68.0,-100.00,NE,55,12.0,29.0,79,0.05,,,0.07,116.000000,,2013-05-26 04:42:00,
2013-05-25 19:02:00,75.0,66.0,-100.00,NE,50,13.0,22.0,73,0.00,,,0.07,45.000000,,2013-05-26 05:02:00,
2013-05-25 19:12:00,75.0,66.0,-100.00,NE,50,13.0,22.0,73,0.00,,,0.07,45.000000,,2013-05-26 05:12:00,
2013-05-25 19:22:00,75.0,66.0,-100.00,NE,50,13.0,22.0,73,0.00,,,0.07,45.000000,,2013-05-26 05:22:00,
2013-05-25 19:32:00,75.0,66.0,-100.00,NE,50,13.0,22.0,73,0.00,,,0.07,45.000000,,2013-05-26 05:32:00,
2013-05-25 19:42:00,75.0,66.0,-100.00,NE,50,13.0,22.0,73,0.00,,,0.07,45.000000,,2013-05-26 05:42:00,
2013-05-25 20:01:00,73.0,63.0,-100.00,NE,41,13.0,21.0,70,0.00,,,0.07,1.000000,,2013-05-26 06:01:00,
2013-05-25 20:11:00,73.0,63.0,-100.00,NE,41,13.0,21.0,70,0.00,,,0.07,1.000000,,2013-05-26 06:11:00,
2013-05-25 20:21:00,73.0,63.0,-100.00,NE,41,13.0,21.0,70,0.00,,,0.07,1.000000,,2013-05-26 06:21:00,
2013-05-25 20:32:00,73.0,63.0,-100.00,NE,41,13.0,21.0,70,0.00,,,0.07,1.000000,,2013-05-26 06:32:00,
2013-05-25 20:41:00,73.0,63.0,-100.00,NE,41,13.0,21.0,70,0.00,,,0.07,1.000000,,2013-05-26 06:41:00,
2013-05-25 21:01:00,74.0,65.0,-100.00,NE,46,14.0,22.0,74,0.01,,,0.08,0.000000,,2013-05-26 07:01:00,
2013-05-25 21:11:00,74.0,65.0,-100.00,NE,46,14.0,22.0,74,0.01,,,0.08,0.000000,,2013-05-26 07:11:00,
2013-05-25 21:21:00,74.0,65.0,-100.00,NE,46,14.0,22.0,74,0.01,,,0.08,0.000000,,2013-05-26 07:21:00,
2013-05-25 21:31:00,74.0,65.0,-100.00,NE,46,14.0,22.0,74,0.01,,,0.08,0.000000,,2013-05-26 07:31:00,
2013-05-25 21:42:00,74.0,65.0,-100.00,NE,46,14.0,22.0,74,0.01,,,0.08,0.000000,,2013-05-26 07:42:00,
2013-05-25 22:01:00,71.0,63.0,-100.00,NE,40,13.0,22.0,77,0.00,,,0.08,0.000000,,2013-05-26 08:01:00,
2013-05-25 22:11:00,71.0,63.0,-100.00,NE,40,13.0,22.0,77,0.00,,,0.08,0.000000,,2013-05-26 08:11:00,
2013-05-25 22:21:00,71.0,63.0,-100.00,NE,40,13.0,22.0,77,0.00,,,0.08,0.000000,,2013-05-26 08:21:00,
2013-05-25 22:32:00,71.0,63.0,-100.00,NE,40,13.0,22.0,77,0.00,,,0.08,0.000000,,2013-05-26 08:32:00,
2013-05-25 22:41:00,71.0,63.0,-100.00,NE,40,13.0,22.0,77,0.00,,,0.08,0.000000,,2013-05-26 08:41:00,
2013-05-25 23:11:00,71.0,63.0,-100.00,NE,52,14.0,20.0,77,0.03,,,-99.99,0.000000,,2013-05-26 09:11:00,
2013-05-25 23:21:00,71.0,63.0,-100.00,NE,52,14.0,20.0,77,0.03,,,-99.99,0.000000,,2013-05-26 09:21:00,
2013-05-25 23:33:00,71.0,63.0,-100.00,NE,52,14.0,20.0,77,0.03,,,-99.99,0.000000,,2013-05-26 09:33:00,
2013-05-25 23:42:00,71.0,63.0,-100.00,NE,52,14.0,20.0,77,0.03,,,-99.99,0.000000,,2013-05-26 09:42:00,